Thursday, April 19, 2018, 4:21 PM CDT
Back to Local

KEMP, Emporia Municipal Airport

Location: Emporia, KS, United States Lat: 38.333
Local Time: 4:21 PM CDT (21:21 GMT) Lon: -96.2
Time Zone: US/Central Elev: 1207 ft

Show me the last for .
Show Decoded

2018-04-19 15:53 METAR KEMP 192053Z AUTO 07012KT 8SM CLR 14/M02 A3037 RMK AO2 SLP293 T01391017
                 58027 =
2018-04-19 14:53 METAR KEMP 191953Z AUTO 02006KT 10SM CLR 13/M02 A3042 RMK AO2 SLP308 T01281022 =
2018-04-19 13:53 METAR KEMP 191853Z AUTO 04009G15KT 10SM CLR 12/M02 A3045 RMK AO2 SLP318
                 T01221022 =
2018-04-19 12:53 METAR KEMP 191753Z AUTO 04009G17KT 10SM CLR 11/M03 A3046 RMK AO2 SLP322
                 T01061028 10111 21011 50001 =
2018-04-19 11:53 METAR KEMP 191653Z AUTO 36006G16KT 10SM CLR 08/M03 A3047 RMK AO2 SLP325
                 T00831028 =
2018-04-19 10:53 METAR KEMP 191553Z AUTO 04009KT 10SM CLR 07/M03 A3047 RMK AO2 SLP325 T00721028 =
2018-04-19 09:53 METAR KEMP 191453Z AUTO 03012KT 10SM FEW024 06/M02 A3046 RMK AO2 SLP322
                 T00561022 51026 =
2018-04-19 08:53 METAR KEMP 191353Z AUTO 01010KT 10SM CLR 03/M02 A3043 RMK AO2 SLP313 T00331017 =
2018-04-19 07:53 METAR KEMP 191253Z AUTO 34009G17KT 10SM FEW022 02/M02 A3041 RMK AO2 SLP307
                 T00171017 =
2018-04-19 06:53 METAR KEMP 191153Z AUTO 31007KT 10SM FEW020 M01/M03 A3038 RMK AO2 SLP295
                 T10111033 10017 21017 53027 =
2018-04-19 05:53 METAR KEMP 191053Z AUTO 29008KT 10SM CLR M01/M04 A3035 RMK AO2 SLP285 T10061039
                 =
2018-04-19 04:53 METAR KEMP 190953Z AUTO 30004KT 10SM CLR M02/M04 A3031 RMK AO2 SLP273 T10171044
                 =
2018-04-19 03:53 METAR KEMP 190853Z AUTO 30005KT 10SM CLR M01/M04 A3029 RMK AO2 SLP267 T10111039
                 52007 =
2018-04-19 02:53 METAR KEMP 190753Z AUTO 29005KT 10SM CLR M01/M04 A3029 RMK AO2 SLP265 T10111044
                 =
2018-04-19 01:53 METAR KEMP 190653Z AUTO 27004KT 10SM CLR 01/M04 A3028 RMK AO2 SLP261 T00061039 =
2018-04-19 00:53 METAR KEMP 190553Z AUTO 29003KT 10SM CLR 02/M04 A3027 RMK AO2 SLP257 T00171039
                 10106 20011 402110011 51012 =
2018-04-18 23:53 METAR KEMP 190453Z AUTO 35007KT 10SM CLR 02/M04 A3026 RMK AO2 SLP255 T00221039 =
2018-04-18 22:53 METAR KEMP 190353Z AUTO 01009KT 10SM CLR 04/M03 A3026 RMK AO2 SLP253 T00391033 =
2018-04-18 21:53 METAR KEMP 190253Z AUTO 35011KT 10SM CLR 06/M02 A3023 RMK AO2 SLP245 T00611022
                 53024 =
2018-04-18 20:53 METAR KEMP 190153Z AUTO 35010G18KT 10SM CLR 07/M02 A3020 RMK AO2 SLP234
                 T00721022 =
2018-04-18 19:53 METAR KEMP 190053Z AUTO 32018G25KT 10SM CLR 09/M02 A3017 RMK AO2 PK WND
                 33034/0008 SLP223 T00941022 =
2018-04-18 18:53 METAR KEMP 182353Z AUTO 33020G37KT 10SM SCT060 11/M03 A3016 RMK AO2 PK WND
                 32037/2348 SLP218 T01061028 10122 20100 53021 =
2018-04-18 17:53 METAR KEMP 182253Z AUTO 33022G34KT 10SM BKN060 12/M03 A3013 RMK AO2 PK WND
                 32036/2203 SLP207 T01221028 =
2018-04-18 16:53 METAR KEMP 182153Z AUTO 32017G32KT 10SM CLR 12/M03 A3010 RMK AO2 PK WND
                 31036/2137 SLP197 T01221033 =

Support USWX by starting your Amazon purchase here.